sensor_id;sensor_type;location;lat;lon;timestamp;temperature;humidity
69418;DHT22;56610;48.872;2.400;2023-09-07T00:01:25;28.80;84.10
69418;DHT22;56610;48.872;2.400;2023-09-07T00:03:51;28.80;84.30
69418;DHT22;56610;48.872;2.400;2023-09-07T00:06:16;28.70;83.90
69418;DHT22;56610;48.872;2.400;2023-09-07T00:08:42;28.70;84.00
69418;DHT22;56610;48.872;2.400;2023-09-07T00:11:08;28.60;84.10
69418;DHT22;56610;48.872;2.400;2023-09-07T00:13:37;28.50;84.80
69418;DHT22;56610;48.872;2.400;2023-09-07T00:16:04;28.50;84.80
69418;DHT22;56610;48.872;2.400;2023-09-07T00:18:31;28.40;84.90
69418;DHT22;56610;48.872;2.400;2023-09-07T00:20:57;28.30;85.10
69418;DHT22;56610;48.872;2.400;2023-09-07T00:23:22;28.40;85.50
69418;DHT22;56610;48.872;2.400;2023-09-07T00:25:48;28.40;85.20
69418;DHT22;56610;48.872;2.400;2023-09-07T00:28:14;28.50;85.40
69418;DHT22;56610;48.872;2.400;2023-09-07T00:30:39;28.40;85.20
69418;DHT22;56610;48.872;2.400;2023-09-07T00:33:07;28.40;84.50
69418;DHT22;56610;48.872;2.400;2023-09-07T00:35:33;28.30;85.00
69418;DHT22;56610;48.872;2.400;2023-09-07T00:38:00;28.20;84.80
69418;DHT22;56610;48.872;2.400;2023-09-07T00:40:25;28.20;85.00
69418;DHT22;56610;48.872;2.400;2023-09-07T00:42:51;28.20;85.00
69418;DHT22;56610;48.872;2.400;2023-09-07T00:45:17;28.20;85.10
69418;DHT22;56610;48.872;2.400;2023-09-07T00:47:43;28.10;85.00
69418;DHT22;56610;48.872;2.400;2023-09-07T00:50:09;28.10;85.20
69418;DHT22;56610;48.872;2.400;2023-09-07T00:52:36;28.00;85.20
69418;DHT22;56610;48.872;2.400;2023-09-07T00:55:05;28.10;85.40
69418;DHT22;56610;48.872;2.400;2023-09-07T00:57:31;28.10;85.10
69418;DHT22;56610;48.872;2.400;2023-09-07T00:59:57;28.10;85.20
69418;DHT22;56610;48.872;2.400;2023-09-07T01:02:23;28.20;84.70
69418;DHT22;56610;48.872;2.400;2023-09-07T01:04:50;28.10;84.60
69418;DHT22;56610;48.872;2.400;2023-09-07T01:07:21;28.00;84.90
69418;DHT22;56610;48.872;2.400;2023-09-07T01:09:52;28.00;85.30
69418;DHT22;56610;48.872;2.400;2023-09-07T01:12:18;28.00;85.80
69418;DHT22;56610;48.872;2.400;2023-09-07T01:14:45;28.00;85.90
69418;DHT22;56610;48.872;2.400;2023-09-07T01:17:11;27.90;86.30
69418;DHT22;56610;48.872;2.400;2023-09-07T01:19:39;27.90;86.40
69418;DHT22;56610;48.872;2.400;2023-09-07T01:22:06;27.80;86.50
69418;DHT22;56610;48.872;2.400;2023-09-07T01:24:32;27.80;86.70
69418;DHT22;56610;48.872;2.400;2023-09-07T01:26:58;27.80;87.20
69418;DHT22;56610;48.872;2.400;2023-09-07T01:29:25;27.80;87.80
69418;DHT22;56610;48.872;2.400;2023-09-07T01:31:54;27.70;88.40
69418;DHT22;56610;48.872;2.400;2023-09-07T01:34:20;27.70;89.00
69418;DHT22;56610;48.872;2.400;2023-09-07T01:36:45;27.80;89.70
69418;DHT22;56610;48.872;2.400;2023-09-07T01:39:11;27.60;89.70
69418;DHT22;56610;48.872;2.400;2023-09-07T01:41:37;27.60;90.20
69418;DHT22;56610;48.872;2.400;2023-09-07T01:44:03;27.60;90.20
69418;DHT22;56610;48.872;2.400;2023-09-07T01:46:28;27.60;90.40
69418;DHT22;56610;48.872;2.400;2023-09-07T01:48:54;27.50;90.50
69418;DHT22;56610;48.872;2.400;2023-09-07T01:51:19;27.40;90.70
69418;DHT22;56610;48.872;2.400;2023-09-07T01:53:48;27.30;90.50
69418;DHT22;56610;48.872;2.400;2023-09-07T01:56:15;27.30;90.50
69418;DHT22;56610;48.872;2.400;2023-09-07T01:58:41;27.20;90.40
69418;DHT22;56610;48.872;2.400;2023-09-07T02:01:06;27.20;90.60
69418;DHT22;56610;48.872;2.400;2023-09-07T02:03:32;27.20;90.40
69418;DHT22;56610;48.872;2.400;2023-09-07T02:05:58;27.10;90.50
69418;DHT22;56610;48.872;2.400;2023-09-07T02:08:23;27.00;90.70
69418;DHT22;56610;48.872;2.400;2023-09-07T02:10:49;27.00;90.70
69418;DHT22;56610;48.872;2.400;2023-09-07T02:13:14;26.90;91.00
69418;DHT22;56610;48.872;2.400;2023-09-07T02:15:40;26.90;91.00
69418;DHT22;56610;48.872;2.400;2023-09-07T02:18:06;26.90;91.00
69418;DHT22;56610;48.872;2.400;2023-09-07T02:20:32;27.00;90.90
69418;DHT22;56610;48.872;2.400;2023-09-07T02:22:58;27.10;90.90
69418;DHT22;56610;48.872;2.400;2023-09-07T02:25:23;27.00;91.10
69418;DHT22;56610;48.872;2.400;2023-09-07T02:27:49;27.00;91.40
69418;DHT22;56610;48.872;2.400;2023-09-07T02:30:15;26.90;91.50
69418;DHT22;56610;48.872;2.400;2023-09-07T02:32:42;26.70;91.70
69418;DHT22;56610;48.872;2.400;2023-09-07T02:35:08;26.60;91.80
69418;DHT22;56610;48.872;2.400;2023-09-07T02:37:35;26.50;92.20
69418;DHT22;56610;48.872;2.400;2023-09-07T02:40:01;26.40;92.50
69418;DHT22;56610;48.872;2.400;2023-09-07T02:42:27;26.20;92.70
69418;DHT22;56610;48.872;2.400;2023-09-07T02:44:52;26.20;93.00
69418;DHT22;56610;48.872;2.400;2023-09-07T02:47:19;26.20;92.90
69418;DHT22;56610;48.872;2.400;2023-09-07T02:49:44;26.20;93.00
69418;DHT22;56610;48.872;2.400;2023-09-07T02:52:10;26.00;93.20
69418;DHT22;56610;48.872;2.400;2023-09-07T02:54:35;26.10;93.20
69418;DHT22;56610;48.872;2.400;2023-09-07T02:57:01;25.90;93.40
69418;DHT22;56610;48.872;2.400;2023-09-07T02:59:26;25.90;93.60
69418;DHT22;56610;48.872;2.400;2023-09-07T03:01:52;25.90;93.80
69418;DHT22;56610;48.872;2.400;2023-09-07T03:04:18;25.90;93.70
69418;DHT22;56610;48.872;2.400;2023-09-07T03:06:43;26.00;93.80
69418;DHT22;56610;48.872;2.400;2023-09-07T03:09:09;25.80;94.20
69418;DHT22;56610;48.872;2.400;2023-09-07T03:11:35;25.80;94.20
69418;DHT22;56610;48.872;2.400;2023-09-07T03:14:00;25.90;94.30
69418;DHT22;56610;48.872;2.400;2023-09-07T03:16:26;25.80;94.30
69418;DHT22;56610;48.872;2.400;2023-09-07T03:18:52;25.70;94.40
69418;DHT22;56610;48.872;2.400;2023-09-07T03:21:18;25.80;94.50
69418;DHT22;56610;48.872;2.400;2023-09-07T03:23:43;25.90;94.30
69418;DHT22;56610;48.872;2.400;2023-09-07T03:26:10;26.10;94.40
69418;DHT22;56610;48.872;2.400;2023-09-07T03:28:36;26.20;94.30
69418;DHT22;56610;48.872;2.400;2023-09-07T03:31:02;26.00;94.30
69418;DHT22;56610;48.872;2.400;2023-09-07T03:33:27;26.00;94.40
69418;DHT22;56610;48.872;2.400;2023-09-07T03:35:53;26.00;94.40
69418;DHT22;56610;48.872;2.400;2023-09-07T03:38:24;26.10;94.30
69418;DHT22;56610;48.872;2.400;2023-09-07T03:40:49;26.20;94.10
69418;DHT22;56610;48.872;2.400;2023-09-07T03:43:15;26.30;94.10
69418;DHT22;56610;48.872;2.400;2023-09-07T03:45:40;26.20;94.20
69418;DHT22;56610;48.872;2.400;2023-09-07T03:48:06;26.20;94.10
69418;DHT22;56610;48.872;2.400;2023-09-07T03:50:31;26.20;94.10
69418;DHT22;56610;48.872;2.400;2023-09-07T03:52:57;26.20;94.10
69418;DHT22;56610;48.872;2.400;2023-09-07T03:55:23;26.20;94.10
69418;DHT22;56610;48.872;2.400;2023-09-07T03:57:49;26.20;94.10
69418;DHT22;56610;48.872;2.400;2023-09-07T04:00:14;26.20;94.30
69418;DHT22;56610;48.872;2.400;2023-09-07T04:02:41;26.10;94.30
69418;DHT22;56610;48.872;2.400;2023-09-07T04:05:06;26.00;94.60
69418;DHT22;56610;48.872;2.400;2023-09-07T04:07:32;25.90;94.70
69418;DHT22;56610;48.872;2.400;2023-09-07T04:09:58;25.80;94.70
69418;DHT22;56610;48.872;2.400;2023-09-07T04:12:24;25.90;94.80
69418;DHT22;56610;48.872;2.400;2023-09-07T04:14:50;25.80;94.80
69418;DHT22;56610;48.872;2.400;2023-09-07T04:17:15;25.80;94.80
69418;DHT22;56610;48.872;2.400;2023-09-07T04:19:41;25.80;94.90
69418;DHT22;56610;48.872;2.400;2023-09-07T04:22:26;25.70;94.90
69418;DHT22;56610;48.872;2.400;2023-09-07T04:24:52;25.70;95.20
69418;DHT22;56610;48.872;2.400;2023-09-07T04:27:17;25.70;95.20
69418;DHT22;56610;48.872;2.400;2023-09-07T04:29:43;25.60;95.30
69418;DHT22;56610;48.872;2.400;2023-09-07T04:32:08;25.40;95.50
69418;DHT22;56610;48.872;2.400;2023-09-07T04:34:34;25.30;95.80
69418;DHT22;56610;48.872;2.400;2023-09-07T04:36:59;25.20;96.00
69418;DHT22;56610;48.872;2.400;2023-09-07T04:39:25;25.20;96.30
69418;DHT22;56610;48.872;2.400;2023-09-07T04:41:51;25.20;96.30
69418;DHT22;56610;48.872;2.400;2023-09-07T04:44:17;25.30;96.30
69418;DHT22;56610;48.872;2.400;2023-09-07T04:46:43;25.40;96.40
69418;DHT22;56610;48.872;2.400;2023-09-07T04:49:08;25.40;96.40
69418;DHT22;56610;48.872;2.400;2023-09-07T04:51:34;25.40;96.40
69418;DHT22;56610;48.872;2.400;2023-09-07T04:54:00;25.50;96.50
69418;DHT22;56610;48.872;2.400;2023-09-07T04:56:25;25.50;96.30
69418;DHT22;56610;48.872;2.400;2023-09-07T04:58:51;25.50;96.40
69418;DHT22;56610;48.872;2.400;2023-09-07T05:01:16;25.50;96.50
69418;DHT22;56610;48.872;2.400;2023-09-07T05:03:42;25.40;96.60
69418;DHT22;56610;48.872;2.400;2023-09-07T05:06:08;25.50;96.60
69418;DHT22;56610;48.872;2.400;2023-09-07T05:08:33;25.40;96.60
69418;DHT22;56610;48.872;2.400;2023-09-07T05:11:03;25.40;96.80
69418;DHT22;56610;48.872;2.400;2023-09-07T05:13:29;25.40;96.80
69418;DHT22;56610;48.872;2.400;2023-09-07T05:15:56;25.40;96.80
69418;DHT22;56610;48.872;2.400;2023-09-07T05:18:22;25.20;97.00
69418;DHT22;56610;48.872;2.400;2023-09-07T05:20:48;25.10;97.40
69418;DHT22;56610;48.872;2.400;2023-09-07T05:23:16;25.20;97.20
69418;DHT22;56610;48.872;2.400;2023-09-07T05:25:47;25.40;97.30
69418;DHT22;56610;48.872;2.400;2023-09-07T05:28:14;25.20;97.60
69418;DHT22;56610;48.872;2.400;2023-09-07T05:30:40;25.10;97.60
69418;DHT22;56610;48.872;2.400;2023-09-07T05:33:07;25.00;97.90
69418;DHT22;56610;48.872;2.400;2023-09-07T05:35:33;25.00;98.00
69418;DHT22;56610;48.872;2.400;2023-09-07T05:37:59;25.00;98.10
69418;DHT22;56610;48.872;2.400;2023-09-07T05:40:24;25.10;98.30
69418;DHT22;56610;48.872;2.400;2023-09-07T05:42:50;25.10;98.00
69418;DHT22;56610;48.872;2.400;2023-09-07T05:45:16;25.10;98.20
69418;DHT22;56610;48.872;2.400;2023-09-07T05:47:41;25.00;98.30
69418;DHT22;56610;48.872;2.400;2023-09-07T05:50:07;25.00;98.50
69418;DHT22;56610;48.872;2.400;2023-09-07T05:52:33;24.80;98.70
69418;DHT22;56610;48.872;2.400;2023-09-07T05:54:58;24.90;98.90
69418;DHT22;56610;48.872;2.400;2023-09-07T05:57:24;24.80;99.10
69418;DHT22;56610;48.872;2.400;2023-09-07T05:59:49;24.70;99.20
69418;DHT22;56610;48.872;2.400;2023-09-07T06:02:15;24.90;99.20
69418;DHT22;56610;48.872;2.400;2023-09-07T06:04:40;25.00;99.30
69418;DHT22;56610;48.872;2.400;2023-09-07T06:07:06;25.00;99.10
69418;DHT22;56610;48.872;2.400;2023-09-07T06:09:31;25.10;98.90
69418;DHT22;56610;48.872;2.400;2023-09-07T06:11:57;25.00;99.00
69418;DHT22;56610;48.872;2.400;2023-09-07T06:14:23;24.90;99.20
69418;DHT22;56610;48.872;2.400;2023-09-07T06:16:48;24.80;99.30
69418;DHT22;56610;48.872;2.400;2023-09-07T06:19:14;24.70;99.40
69418;DHT22;56610;48.872;2.400;2023-09-07T06:21:39;24.60;99.70
69418;DHT22;56610;48.872;2.400;2023-09-07T06:24:05;24.50;99.90
69418;DHT22;56610;48.872;2.400;2023-09-07T06:26:32;24.40;99.90
69418;DHT22;56610;48.872;2.400;2023-09-07T06:28:57;24.40;99.90
69418;DHT22;56610;48.872;2.400;2023-09-07T06:31:23;24.40;99.90
69418;DHT22;56610;48.872;2.400;2023-09-07T06:33:49;24.50;99.90
69418;DHT22;56610;48.872;2.400;2023-09-07T06:36:14;24.60;99.90
69418;DHT22;56610;48.872;2.400;2023-09-07T06:38:40;24.50;99.90
69418;DHT22;56610;48.872;2.400;2023-09-07T06:41:05;24.60;99.90
69418;DHT22;56610;48.872;2.400;2023-09-07T06:43:33;24.40;99.90
69418;DHT22;56610;48.872;2.400;2023-09-07T06:46:05;24.40;99.90
69418;DHT22;56610;48.872;2.400;2023-09-07T06:48:32;24.40;99.90
69418;DHT22;56610;48.872;2.400;2023-09-07T06:51:02;24.50;99.90
69418;DHT22;56610;48.872;2.400;2023-09-07T06:53:28;24.50;99.90
69418;DHT22;56610;48.872;2.400;2023-09-07T06:56:01;24.50;99.90
69418;DHT22;56610;48.872;2.400;2023-09-07T06:58:27;24.40;99.90
69418;DHT22;56610;48.872;2.400;2023-09-07T07:00:57;24.50;99.90
69418;DHT22;56610;48.872;2.400;2023-09-07T07:03:29;24.50;99.90
69418;DHT22;56610;48.872;2.400;2023-09-07T07:05:55;24.60;99.90
69418;DHT22;56610;48.872;2.400;2023-09-07T07:08:21;24.70;99.90
69418;DHT22;56610;48.872;2.400;2023-09-07T07:10:47;24.80;99.90
69418;DHT22;56610;48.872;2.400;2023-09-07T07:13:13;25.00;99.90
69418;DHT22;56610;48.872;2.400;2023-09-07T07:15:38;25.10;99.90
69418;DHT22;56610;48.872;2.400;2023-09-07T07:18:04;25.40;99.90
69418;DHT22;56610;48.872;2.400;2023-09-07T07:20:37;25.60;99.90
69418;DHT22;56610;48.872;2.400;2023-09-07T07:23:03;25.70;99.90
69418;DHT22;56610;48.872;2.400;2023-09-07T07:25:29;25.90;99.80
69418;DHT22;56610;48.872;2.400;2023-09-07T07:27:59;26.00;99.60
69418;DHT22;56610;48.872;2.400;2023-09-07T07:30:27;26.10;99.60
69418;DHT22;56610;48.872;2.400;2023-09-07T07:32:55;26.20;99.60
69418;DHT22;56610;48.872;2.400;2023-09-07T07:35:21;26.20;99.30
69418;DHT22;56610;48.872;2.400;2023-09-07T07:37:48;26.20;99.10
69418;DHT22;56610;48.872;2.400;2023-09-07T07:40:13;26.30;99.10
69418;DHT22;56610;48.872;2.400;2023-09-07T07:42:39;26.40;99.00
69418;DHT22;56610;48.872;2.400;2023-09-07T07:45:05;26.40;98.90
69418;DHT22;56610;48.872;2.400;2023-09-07T07:47:30;26.40;99.10
69418;DHT22;56610;48.872;2.400;2023-09-07T07:49:56;26.50;99.00
69418;DHT22;56610;48.872;2.400;2023-09-07T07:52:22;26.50;98.90
69418;DHT22;56610;48.872;2.400;2023-09-07T07:54:47;26.60;99.00
69418;DHT22;56610;48.872;2.400;2023-09-07T07:57:13;26.60;98.80
69418;DHT22;56610;48.872;2.400;2023-09-07T07:59:38;26.70;98.60
69418;DHT22;56610;48.872;2.400;2023-09-07T08:02:04;26.80;98.50
69418;DHT22;56610;48.872;2.400;2023-09-07T08:04:31;26.80;98.60
69418;DHT22;56610;48.872;2.400;2023-09-07T08:06:58;26.80;98.40
69418;DHT22;56610;48.872;2.400;2023-09-07T08:09:32;26.80;98.60
69418;DHT22;56610;48.872;2.400;2023-09-07T08:11:57;26.80;98.30
69418;DHT22;56610;48.872;2.400;2023-09-07T08:14:24;26.80;98.30
69418;DHT22;56610;48.872;2.400;2023-09-07T08:16:50;26.90;98.30
69418;DHT22;56610;48.872;2.400;2023-09-07T08:19:16;26.80;98.30
69418;DHT22;56610;48.872;2.400;2023-09-07T08:21:42;26.80;98.50
69418;DHT22;56610;48.872;2.400;2023-09-07T08:24:08;26.90;98.50
69418;DHT22;56610;48.872;2.400;2023-09-07T08:26:35;27.10;98.20
69418;DHT22;56610;48.872;2.400;2023-09-07T08:29:01;27.00;98.30
69418;DHT22;56610;48.872;2.400;2023-09-07T08:31:34;27.00;98.20
69418;DHT22;56610;48.872;2.400;2023-09-07T08:34:01;27.00;98.30
69418;DHT22;56610;48.872;2.400;2023-09-07T08:36:28;27.00;98.20
69418;DHT22;56610;48.872;2.400;2023-09-07T08:38:57;26.90;98.20
69418;DHT22;56610;48.872;2.400;2023-09-07T08:41:25;26.90;98.30
69418;DHT22;56610;48.872;2.400;2023-09-07T08:43:53;27.00;98.20
69418;DHT22;56610;48.872;2.400;2023-09-07T08:46:19;27.20;98.10
69418;DHT22;56610;48.872;2.400;2023-09-07T08:48:46;27.40;97.70
69418;DHT22;56610;48.872;2.400;2023-09-07T08:51:15;27.60;97.20
69418;DHT22;56610;48.872;2.400;2023-09-07T08:53:40;27.60;97.20
69418;DHT22;56610;48.872;2.400;2023-09-07T08:56:07;27.60;97.30
69418;DHT22;56610;48.872;2.400;2023-09-07T08:58:35;27.60;97.50
69418;DHT22;56610;48.872;2.400;2023-09-07T09:01:01;27.60;97.70
69418;DHT22;56610;48.872;2.400;2023-09-07T09:03:26;27.50;97.60
69418;DHT22;56610;48.872;2.400;2023-09-07T09:05:55;27.50;97.60
69418;DHT22;56610;48.872;2.400;2023-09-07T09:08:21;27.50;97.90
69418;DHT22;56610;48.872;2.400;2023-09-07T09:10:58;27.50;98.00
69418;DHT22;56610;48.872;2.400;2023-09-07T09:13:33;27.50;98.00
69418;DHT22;56610;48.872;2.400;2023-09-07T09:15:59;27.60;98.00
69418;DHT22;56610;48.872;2.400;2023-09-07T09:18:26;27.70;97.90
69418;DHT22;56610;48.872;2.400;2023-09-07T09:20:53;27.80;97.50
69418;DHT22;56610;48.872;2.400;2023-09-07T09:23:19;28.00;97.60
69418;DHT22;56610;48.872;2.400;2023-09-07T09:25:47;28.10;97.50
69418;DHT22;56610;48.872;2.400;2023-09-07T09:28:13;28.20;97.40
69418;DHT22;56610;48.872;2.400;2023-09-07T09:30:38;28.30;97.30
69418;DHT22;56610;48.872;2.400;2023-09-07T09:33:05;28.30;97.00
69418;DHT22;56610;48.872;2.400;2023-09-07T09:35:31;28.40;96.90
69418;DHT22;56610;48.872;2.400;2023-09-07T09:38:01;28.40;97.00
69418;DHT22;56610;48.872;2.400;2023-09-07T09:40:33;28.50;97.00
69418;DHT22;56610;48.872;2.400;2023-09-07T09:43:02;28.60;96.60
69418;DHT22;56610;48.872;2.400;2023-09-07T09:45:31;28.60;96.50
69418;DHT22;56610;48.872;2.400;2023-09-07T09:47:58;28.50;96.60
69418;DHT22;56610;48.872;2.400;2023-09-07T09:50:26;28.50;96.70
69418;DHT22;56610;48.872;2.400;2023-09-07T09:52:52;28.50;96.70
69418;DHT22;56610;48.872;2.400;2023-09-07T09:55:18;28.50;96.70
69418;DHT22;56610;48.872;2.400;2023-09-07T09:57:44;28.50;96.40
69418;DHT22;56610;48.872;2.400;2023-09-07T10:00:11;28.40;96.40
69418;DHT22;56610;48.872;2.400;2023-09-07T10:02:54;28.40;96.40
69418;DHT22;56610;48.872;2.400;2023-09-07T10:05:21;28.40;96.70
69418;DHT22;56610;48.872;2.400;2023-09-07T10:07:49;28.40;96.50
69418;DHT22;56610;48.872;2.400;2023-09-07T10:10:17;28.40;96.80
69418;DHT22;56610;48.872;2.400;2023-09-07T10:12:52;28.60;96.50
69418;DHT22;56610;48.872;2.400;2023-09-07T10:15:22;28.80;96.50
69418;DHT22;56610;48.872;2.400;2023-09-07T10:17:47;28.80;96.60
69418;DHT22;56610;48.872;2.400;2023-09-07T10:20:19;29.10;96.30
69418;DHT22;56610;48.872;2.400;2023-09-07T10:23:02;29.10;96.20
69418;DHT22;56610;48.872;2.400;2023-09-07T10:25:30;29.20;96.00
69418;DHT22;56610;48.872;2.400;2023-09-07T10:27:56;29.10;96.00
69418;DHT22;56610;48.872;2.400;2023-09-07T10:30:22;29.10;96.00
69418;DHT22;56610;48.872;2.400;2023-09-07T10:32:49;29.30;96.00
69418;DHT22;56610;48.872;2.400;2023-09-07T10:35:16;29.30;95.70
69418;DHT22;56610;48.872;2.400;2023-09-07T10:37:46;29.20;95.80
69418;DHT22;56610;48.872;2.400;2023-09-07T10:40:12;29.30;95.80
69418;DHT22;56610;48.872;2.400;2023-09-07T10:42:39;29.40;95.70
69418;DHT22;56610;48.872;2.400;2023-09-07T10:45:09;29.30;95.90
69418;DHT22;56610;48.872;2.400;2023-09-07T10:47:35;29.50;95.80
69418;DHT22;56610;48.872;2.400;2023-09-07T10:50:05;29.70;95.30
69418;DHT22;56610;48.872;2.400;2023-09-07T10:52:33;29.90;95.30
69418;DHT22;56610;48.872;2.400;2023-09-07T10:54:59;30.00;95.40
69418;DHT22;56610;48.872;2.400;2023-09-07T10:57:24;30.20;95.10
69418;DHT22;56610;48.872;2.400;2023-09-07T10:59:50;30.50;94.60
69418;DHT22;56610;48.872;2.400;2023-09-07T11:02:20;30.70;94.50
69418;DHT22;56610;48.872;2.400;2023-09-07T11:04:45;31.00;94.00
69418;DHT22;56610;48.872;2.400;2023-09-07T11:07:12;31.60;93.30
69418;DHT22;56610;48.872;2.400;2023-09-07T11:09:41;32.10;92.50
69418;DHT22;56610;48.872;2.400;2023-09-07T11:12:07;32.30;92.40
69418;DHT22;56610;48.872;2.400;2023-09-07T11:14:33;32.50;92.20
69418;DHT22;56610;48.872;2.400;2023-09-07T11:17:00;32.60;91.90
69418;DHT22;56610;48.872;2.400;2023-09-07T11:19:26;32.80;91.70
69418;DHT22;56610;48.872;2.400;2023-09-07T11:21:54;32.90;91.70
69418;DHT22;56610;48.872;2.400;2023-09-07T11:24:19;32.80;91.70
69418;DHT22;56610;48.872;2.400;2023-09-07T11:26:46;32.70;91.90
69418;DHT22;56610;48.872;2.400;2023-09-07T11:29:15;32.60;91.70
69418;DHT22;56610;48.872;2.400;2023-09-07T11:31:41;32.50;91.60
69418;DHT22;56610;48.872;2.400;2023-09-07T11:34:12;32.50;91.70
69418;DHT22;56610;48.872;2.400;2023-09-07T11:36:39;32.50;92.00
69418;DHT22;56610;48.872;2.400;2023-09-07T11:39:04;33.00;90.80
69418;DHT22;56610;48.872;2.400;2023-09-07T11:41:39;33.50;90.90
69418;DHT22;56610;48.872;2.400;2023-09-07T11:44:04;34.00;89.90
69418;DHT22;56610;48.872;2.400;2023-09-07T11:46:30;34.40;89.60
69418;DHT22;56610;48.872;2.400;2023-09-07T11:48:56;34.50;89.60
69418;DHT22;56610;48.872;2.400;2023-09-07T11:51:21;34.90;88.00
69418;DHT22;56610;48.872;2.400;2023-09-07T11:53:47;35.20;87.80
69418;DHT22;56610;48.872;2.400;2023-09-07T11:56:12;35.20;87.80
69418;DHT22;56610;48.872;2.400;2023-09-07T11:58:38;35.80;86.00
69418;DHT22;56610;48.872;2.400;2023-09-07T12:01:03;35.50;84.90
69418;DHT22;56610;48.872;2.400;2023-09-07T12:03:29;35.50;86.20
69418;DHT22;56610;48.872;2.400;2023-09-07T12:05:57;35.50;86.00
69418;DHT22;56610;48.872;2.400;2023-09-07T12:08:23;35.40;86.60
69418;DHT22;56610;48.872;2.400;2023-09-07T12:10:48;35.40;86.00
69418;DHT22;56610;48.872;2.400;2023-09-07T12:13:14;35.80;84.90
69418;DHT22;56610;48.872;2.400;2023-09-07T12:15:39;35.80;84.60
69418;DHT22;56610;48.872;2.400;2023-09-07T12:18:05;35.70;85.40
69418;DHT22;56610;48.872;2.400;2023-09-07T12:20:31;36.10;85.40
69418;DHT22;56610;48.872;2.400;2023-09-07T12:22:59;36.30;84.00
69418;DHT22;56610;48.872;2.400;2023-09-07T12:25:25;36.50;84.80
69418;DHT22;56610;48.872;2.400;2023-09-07T12:27:50;36.50;83.70
69418;DHT22;56610;48.872;2.400;2023-09-07T12:30:17;36.70;83.10
69418;DHT22;56610;48.872;2.400;2023-09-07T12:32:45;36.60;83.30
69418;DHT22;56610;48.872;2.400;2023-09-07T12:35:11;37.00;82.20
69418;DHT22;56610;48.872;2.400;2023-09-07T12:37:36;37.20;81.50
69418;DHT22;56610;48.872;2.400;2023-09-07T12:40:03;37.60;80.90
69418;DHT22;56610;48.872;2.400;2023-09-07T12:42:37;37.70;79.70
69418;DHT22;56610;48.872;2.400;2023-09-07T12:45:03;38.00;79.40
69418;DHT22;56610;48.872;2.400;2023-09-07T12:47:30;37.70;80.00
69418;DHT22;56610;48.872;2.400;2023-09-07T12:49:55;37.40;79.70
69418;DHT22;56610;48.872;2.400;2023-09-07T12:52:21;37.40;79.50
69418;DHT22;56610;48.872;2.400;2023-09-07T12:54:47;37.90;78.30
69418;DHT22;56610;48.872;2.400;2023-09-07T12:57:13;38.20;78.70
69418;DHT22;56610;48.872;2.400;2023-09-07T12:59:38;38.50;77.70
69418;DHT22;56610;48.872;2.400;2023-09-07T13:02:04;39.20;76.20
69418;DHT22;56610;48.872;2.400;2023-09-07T13:04:29;39.50;75.00
69418;DHT22;56610;48.872;2.400;2023-09-07T13:06:55;39.90;74.70
69418;DHT22;56610;48.872;2.400;2023-09-07T13:09:20;40.00;74.50
69418;DHT22;56610;48.872;2.400;2023-09-07T13:11:46;40.00;74.70
69418;DHT22;56610;48.872;2.400;2023-09-07T13:14:11;40.40;74.30
69418;DHT22;56610;48.872;2.400;2023-09-07T13:16:37;40.40;73.60
69418;DHT22;56610;48.872;2.400;2023-09-07T13:19:03;40.30;73.80
69418;DHT22;56610;48.872;2.400;2023-09-07T13:21:28;40.00;74.20
69418;DHT22;56610;48.872;2.400;2023-09-07T13:23:54;39.70;73.90
69418;DHT22;56610;48.872;2.400;2023-09-07T13:26:19;39.30;74.00
69418;DHT22;56610;48.872;2.400;2023-09-07T13:28:45;39.30;74.30
69418;DHT22;56610;48.872;2.400;2023-09-07T13:31:10;39.20;74.50
69418;DHT22;56610;48.872;2.400;2023-09-07T13:33:36;39.00;74.80
69418;DHT22;56610;48.872;2.400;2023-09-07T13:36:01;39.00;74.20
69418;DHT22;56610;48.872;2.400;2023-09-07T13:38:27;39.50;73.20
69418;DHT22;56610;48.872;2.400;2023-09-07T13:40:53;39.30;73.30
69418;DHT22;56610;48.872;2.400;2023-09-07T13:43:18;39.30;73.10
69418;DHT22;56610;48.872;2.400;2023-09-07T13:45:44;39.50;73.00
69418;DHT22;56610;48.872;2.400;2023-09-07T13:48:10;39.30;72.60
69418;DHT22;56610;48.872;2.400;2023-09-07T13:50:35;39.10;72.40
69418;DHT22;56610;48.872;2.400;2023-09-07T13:53:01;38.90;73.40
69418;DHT22;56610;48.872;2.400;2023-09-07T13:55:27;38.90;72.60
69418;DHT22;56610;48.872;2.400;2023-09-07T13:57:52;38.90;73.00
69418;DHT22;56610;48.872;2.400;2023-09-07T14:00:18;38.90;72.20
69418;DHT22;56610;48.872;2.400;2023-09-07T14:02:43;38.70;72.30
69418;DHT22;56610;48.872;2.400;2023-09-07T14:05:09;38.90;73.20
69418;DHT22;56610;48.872;2.400;2023-09-07T14:07:34;39.20;73.20
69418;DHT22;56610;48.872;2.400;2023-09-07T14:10:00;39.80;72.50
69418;DHT22;56610;48.872;2.400;2023-09-07T14:12:26;40.20;71.80
69418;DHT22;56610;48.872;2.400;2023-09-07T14:14:52;40.60;71.40
69418;DHT22;56610;48.872;2.400;2023-09-07T14:17:18;41.10;71.00
69418;DHT22;56610;48.872;2.400;2023-09-07T14:19:43;41.20;70.30
69418;DHT22;56610;48.872;2.400;2023-09-07T14:22:13;41.40;69.50
69418;DHT22;56610;48.872;2.400;2023-09-07T14:24:39;41.60;69.10
69418;DHT22;56610;48.872;2.400;2023-09-07T14:27:05;41.70;70.00
69418;DHT22;56610;48.872;2.400;2023-09-07T14:29:30;42.00;68.40
69418;DHT22;56610;48.872;2.400;2023-09-07T14:31:56;42.20;65.60
69418;DHT22;56610;48.872;2.400;2023-09-07T14:34:21;42.00;65.00
69418;DHT22;56610;48.872;2.400;2023-09-07T14:36:47;41.90;65.70
69418;DHT22;56610;48.872;2.400;2023-09-07T14:39:13;41.60;65.00
69418;DHT22;56610;48.872;2.400;2023-09-07T14:41:39;41.40;65.50
69418;DHT22;56610;48.872;2.400;2023-09-07T14:44:05;41.40;65.60
69418;DHT22;56610;48.872;2.400;2023-09-07T14:46:31;41.30;66.30
69418;DHT22;56610;48.872;2.400;2023-09-07T14:48:57;41.00;66.30
69418;DHT22;56610;48.872;2.400;2023-09-07T14:51:23;40.90;66.40
69418;DHT22;56610;48.872;2.400;2023-09-07T14:53:48;40.80;66.80
69418;DHT22;56610;48.872;2.400;2023-09-07T14:56:14;40.70;67.90
69418;DHT22;56610;48.872;2.400;2023-09-07T14:58:40;40.70;66.80
69418;DHT22;56610;48.872;2.400;2023-09-07T15:01:05;40.90;66.40
69418;DHT22;56610;48.872;2.400;2023-09-07T15:03:31;41.10;65.90
69418;DHT22;56610;48.872;2.400;2023-09-07T15:05:57;41.30;65.80
69418;DHT22;56610;48.872;2.400;2023-09-07T15:08:23;41.30;65.70
69418;DHT22;56610;48.872;2.400;2023-09-07T15:10:48;41.20;65.00
69418;DHT22;56610;48.872;2.400;2023-09-07T15:13:18;40.80;65.90
69418;DHT22;56610;48.872;2.400;2023-09-07T15:15:45;40.90;66.30
69418;DHT22;56610;48.872;2.400;2023-09-07T15:18:11;41.10;66.30
69418;DHT22;56610;48.872;2.400;2023-09-07T15:20:37;41.30;65.90
69418;DHT22;56610;48.872;2.400;2023-09-07T15:23:02;41.50;65.20
69418;DHT22;56610;48.872;2.400;2023-09-07T15:25:28;41.50;65.10